createdAt,value
2019-03-30T00:00:18.727Z,37.73
2019-03-30T00:02:47.788Z,38.30
2019-03-30T00:05:16.835Z,37.45
2019-03-30T00:07:45.898Z,40.12
2019-03-30T00:10:14.949Z,41.15
2019-03-30T00:12:44.010Z,38.20
2019-03-30T00:15:13.139Z,36.03
2019-03-30T00:17:42.215Z,37.63
2019-03-30T00:20:11.247Z,35.40
2019-03-30T00:22:40.318Z,36.45
2019-03-30T00:25:09.359Z,34.90
2019-03-30T00:27:38.407Z,38.65
2019-03-30T00:30:07.421Z,34.13
2019-03-30T00:32:36.497Z,31.80
2019-03-30T00:35:06.923Z,31.95
2019-03-30T00:37:35.414Z,35.13
2019-03-30T00:40:06.515Z,32.05
2019-03-30T00:42:34.992Z,32.17
2019-03-30T00:45:04.689Z,30.85
2019-03-30T00:47:33.167Z,32.73
2019-03-30T00:50:02.211Z,35.80
2019-03-30T00:52:31.279Z,31.00
2019-03-30T00:54:59.738Z,33.73
2019-03-30T00:57:28.228Z,30.97
2019-03-30T00:59:56.694Z,28.75
2019-03-30T01:02:25.189Z,30.73
2019-03-30T01:04:54.247Z,30.70
2019-03-30T01:07:23.320Z,32.53
2019-03-30T01:09:52.369Z,31.50
2019-03-30T01:12:20.840Z,28.05
2019-03-30T01:14:49.895Z,29.67
2019-03-30T01:17:18.434Z,28.83
2019-03-30T01:19:47.498Z,29.30
2019-03-30T01:22:16.549Z,28.87
2019-03-30T01:24:45.031Z,30.63
2019-03-30T01:27:14.087Z,29.02
2019-03-30T01:29:43.159Z,31.68
2019-03-30T01:32:11.637Z,29.03
2019-03-30T01:34:40.124Z,34.93
2019-03-30T01:37:09.184Z,29.75
2019-03-30T01:39:38.256Z,29.87
2019-03-30T01:42:06.727Z,32.45
2019-03-30T01:44:35.795Z,32.67
2019-03-30T01:47:04.844Z,30.70
2019-03-30T01:49:33.910Z,29.95
2019-03-30T01:52:02.964Z,30.12
2019-03-30T01:54:32.042Z,30.05
2019-03-30T01:57:00.500Z,32.83
2019-03-30T01:59:29.568Z,29.23
2019-03-30T02:01:58.618Z,33.63
2019-03-30T02:04:27.669Z,29.87
2019-03-30T02:06:56.136Z,33.77
2019-03-30T02:09:24.610Z,32.67
2019-03-30T02:11:53.088Z,35.37
2019-03-30T02:14:21.555Z,31.00
2019-03-30T02:16:50.582Z,31.60
2019-03-30T02:19:19.404Z,31.07
2019-03-30T02:21:48.450Z,29.85
2019-03-30T02:24:17.506Z,32.20
2019-03-30T02:26:45.979Z,32.83
2019-03-30T02:29:15.028Z,34.25
2019-03-30T02:31:44.089Z,31.27
2019-03-30T02:34:12.594Z,30.63
2019-03-30T02:36:41.058Z,33.03
2019-03-30T02:39:09.723Z,30.97
2019-03-30T02:41:38.190Z,29.90
2019-03-30T02:44:06.724Z,31.40
2019-03-30T02:46:35.219Z,32.23
2019-03-30T02:49:03.670Z,34.93
2019-03-30T02:51:32.151Z,33.67
2019-03-30T02:54:00.621Z,32.57
2019-03-30T02:56:29.110Z,33.70
2019-03-30T02:58:57.565Z,34.97
2019-03-30T03:01:26.045Z,32.60
2019-03-30T03:03:54.580Z,30.77
2019-03-30T03:06:23.129Z,31.93
2019-03-30T03:08:52.197Z,30.43
2019-03-30T03:11:21.270Z,31.05
2019-03-30T03:13:49.743Z,31.97
2019-03-30T03:16:18.287Z,31.20
2019-03-30T03:18:46.757Z,29.90
2019-03-30T03:21:15.252Z,30.53
2019-03-30T03:23:43.794Z,30.50
2019-03-30T03:26:12.274Z,30.70
2019-03-30T03:28:41.340Z,32.75
2019-03-30T03:31:09.896Z,31.02
2019-03-30T03:33:38.357Z,27.87
2019-03-30T03:36:06.842Z,28.70
2019-03-30T03:38:35.317Z,28.07
2019-03-30T03:41:04.386Z,27.60
2019-03-30T03:43:32.852Z,28.20
2019-03-30T03:46:01.340Z,25.10
2019-03-30T03:48:29.805Z,30.37
2019-03-30T03:51:01.359Z,26.07
2019-03-30T03:53:31.049Z,25.37
2019-03-30T03:56:01.689Z,29.97
2019-03-30T03:58:33.419Z,29.67
2019-03-30T04:01:02.765Z,26.90
2019-03-30T04:03:34.932Z,28.43
2019-03-30T04:06:06.053Z,27.13
2019-03-30T04:08:35.620Z,28.80
2019-03-30T04:11:04.625Z,31.10
2019-03-30T04:13:33.243Z,29.07
2019-03-30T04:16:01.713Z,31.37
2019-03-30T04:18:30.270Z,28.03
2019-03-30T04:20:59.327Z,29.10
2019-03-30T04:23:27.840Z,28.30
2019-03-30T04:25:56.313Z,28.90
2019-03-30T04:28:24.781Z,28.17
2019-03-30T04:30:53.255Z,30.40
2019-03-30T04:33:21.723Z,30.93
2019-03-30T04:35:50.188Z,30.30
2019-03-30T04:38:19.255Z,27.05
2019-03-30T04:40:47.729Z,28.93
2019-03-30T04:43:16.241Z,29.90
2019-03-30T04:45:44.755Z,29.73
2019-03-30T04:48:13.229Z,30.13
2019-03-30T04:50:41.687Z,29.47
2019-03-30T04:53:10.172Z,28.40
2019-03-30T04:55:38.705Z,26.33
2019-03-30T04:58:09.192Z,27.50
2019-03-30T05:00:37.390Z,28.63
2019-03-30T05:03:05.939Z,27.83
2019-03-30T05:05:34.405Z,26.40
2019-03-30T05:08:03.463Z,27.35
2019-03-30T05:10:31.934Z,27.37
2019-03-30T05:13:00.428Z,27.80
2019-03-30T05:15:28.897Z,27.03
2019-03-30T05:17:57.390Z,24.50
2019-03-30T05:20:25.848Z,25.82
2019-03-30T05:22:54.384Z,27.63
2019-03-30T05:25:22.864Z,23.87
2019-03-30T05:27:51.530Z,23.17
2019-03-30T05:30:20.002Z,24.20
2019-03-30T05:32:49.066Z,24.32
2019-03-30T05:35:17.557Z,25.97
2019-03-30T05:37:46.140Z,21.62
2019-03-30T05:40:14.679Z,23.00
2019-03-30T05:42:43.734Z,24.57
2019-03-30T05:45:12.648Z,24.32
2019-03-30T05:47:41.130Z,22.80
2019-03-30T05:50:10.668Z,24.75
2019-03-30T05:52:39.775Z,22.05
2019-03-30T05:55:08.998Z,24.57
2019-03-30T05:57:38.044Z,23.30
2019-03-30T06:00:08.341Z,23.50
2019-03-30T06:02:36.806Z,23.80
2019-03-30T06:05:06.007Z,25.70
2019-03-30T06:07:34.522Z,20.92
2019-03-30T06:10:05.170Z,25.60
2019-03-30T06:12:33.646Z,24.95
2019-03-30T06:15:02.155Z,23.93
2019-03-30T06:17:30.611Z,23.77
2019-03-30T06:19:59.074Z,25.77
2019-03-30T06:22:39.699Z,24.57
2019-03-30T06:24:58.921Z,23.38
2019-03-30T06:27:27.980Z,22.42
2019-03-30T06:30:14.983Z,35.28
2019-03-30T06:32:45.472Z,32.80
2019-03-30T06:35:14.597Z,28.87
2019-03-30T06:37:43.663Z,21.62
2019-03-30T06:40:12.953Z,22.10
2019-03-30T06:42:42.086Z,22.13
2019-03-30T06:45:11.207Z,20.82
2019-03-30T06:47:40.337Z,24.32
2019-03-30T06:50:09.827Z,20.65
2019-03-30T06:52:42.704Z,19.65
2019-03-30T06:55:10.108Z,21.15
2019-03-30T06:57:39.465Z,21.07
2019-03-30T07:00:08.918Z,20.50
2019-03-30T07:02:38.134Z,20.65
2019-03-30T07:05:08.625Z,22.75
2019-03-30T07:07:38.725Z,22.10
2019-03-30T07:10:08.509Z,21.25
2019-03-30T07:12:41.221Z,21.23
2019-03-30T07:15:10.732Z,20.95
2019-03-30T07:17:47.041Z,21.87
2019-03-30T07:20:29.915Z,19.10
2019-03-30T07:23:11.159Z,21.70
2019-03-30T07:25:30.136Z,21.17
2019-03-30T07:27:59.187Z,19.17
2019-03-30T07:30:28.262Z,20.12
2019-03-30T07:32:57.328Z,18.65
2019-03-30T07:35:26.371Z,19.60
2019-03-30T07:37:55.443Z,20.45
2019-03-30T07:40:24.577Z,18.85
2019-03-30T07:42:53.648Z,19.32
2019-03-30T07:45:22.690Z,19.52
2019-03-30T07:47:51.754Z,18.62
2019-03-30T07:50:21.042Z,19.12
2019-03-30T07:52:50.098Z,22.00
2019-03-30T07:55:19.147Z,19.65
2019-03-30T07:57:48.224Z,20.17
2019-03-30T08:00:17.918Z,18.37
2019-03-30T08:02:46.977Z,19.60
2019-03-30T08:05:16.308Z,17.65
2019-03-30T08:07:45.379Z,18.77
2019-03-30T08:10:14.967Z,20.45
2019-03-30T08:12:44.058Z,19.95
2019-03-30T08:15:13.749Z,16.75
2019-03-30T08:17:42.802Z,18.52
2019-03-30T08:20:12.297Z,17.67
2019-03-30T08:22:41.365Z,18.90
2019-03-30T08:25:10.761Z,20.00
2019-03-30T08:27:39.825Z,17.45
2019-03-30T08:30:09.546Z,17.25
2019-03-30T08:32:38.662Z,18.00
2019-03-30T08:35:08.365Z,21.40
2019-03-30T08:37:37.438Z,17.27
2019-03-30T08:40:06.719Z,15.75
2019-03-30T08:42:35.773Z,15.98
2019-03-30T08:45:06.995Z,16.48
2019-03-30T08:47:36.043Z,18.52
2019-03-30T08:50:08.907Z,20.08
2019-03-30T08:52:37.964Z,17.55
2019-03-30T08:55:08.265Z,18.87
2019-03-30T08:57:37.339Z,16.73
2019-03-30T09:00:07.157Z,16.20
2019-03-30T09:02:36.211Z,17.02
2019-03-30T09:05:07.428Z,16.45
2019-03-30T09:07:36.519Z,19.65
2019-03-30T09:10:09.129Z,17.70
2019-03-30T09:12:38.232Z,14.95
2019-03-30T09:15:07.939Z,16.35
2019-03-30T09:17:37.482Z,17.05
2019-03-30T09:20:07.994Z,16.48
2019-03-30T09:22:37.052Z,17.70
2019-03-30T09:25:06.597Z,15.45
2019-03-30T09:27:35.725Z,13.78
2019-03-30T09:30:07.900Z,15.75
2019-03-30T09:32:37.121Z,17.45
2019-03-30T09:35:08.252Z,16.02
2019-03-30T09:37:37.298Z,21.60
2019-03-30T09:40:08.707Z,15.90
2019-03-30T09:42:37.765Z,16.12
2019-03-30T09:45:07.879Z,16.35
2019-03-30T09:47:36.944Z,14.15
2019-03-30T09:50:08.821Z,18.60
2019-03-30T09:52:37.972Z,14.68
2019-03-30T09:55:08.100Z,15.85
2019-03-30T09:57:37.244Z,16.80
2019-03-30T10:00:08.077Z,16.17
2019-03-30T10:02:37.263Z,16.65
2019-03-30T10:05:06.884Z,14.60
2019-03-30T10:07:36.056Z,15.53
2019-03-30T10:10:06.843Z,17.42
2019-03-30T10:12:35.918Z,15.15
2019-03-30T10:15:07.355Z,17.05
2019-03-30T10:17:36.405Z,15.30
2019-03-30T10:20:09.492Z,17.95
2019-03-30T10:22:42.039Z,17.45
2019-03-30T10:25:09.699Z,15.60
2019-03-30T10:27:38.769Z,14.25
2019-03-30T10:30:09.648Z,15.78
2019-03-30T10:32:38.727Z,15.70
2019-03-30T10:35:07.930Z,15.83
2019-03-30T10:37:36.992Z,12.40
2019-03-30T10:40:07.677Z,13.80
2019-03-30T10:42:36.821Z,14.93
2019-03-30T10:45:08.374Z,13.45
2019-03-30T10:47:37.505Z,14.35
2019-03-30T10:50:09.463Z,14.03
2019-03-30T10:52:38.562Z,14.60
2019-03-30T10:55:07.853Z,16.87
2019-03-30T10:57:36.935Z,15.25
2019-03-30T11:00:08.763Z,15.40
2019-03-30T11:02:38.981Z,16.07
2019-03-30T11:05:08.230Z,18.35
2019-03-30T11:07:37.300Z,15.68
2019-03-30T11:10:07.489Z,17.27
2019-03-30T11:12:36.571Z,16.60
2019-03-30T11:15:06.855Z,20.32
2019-03-30T11:17:35.929Z,17.02
2019-03-30T11:20:05.434Z,19.25
2019-03-30T11:22:34.578Z,21.48
2019-03-30T11:25:07.751Z,19.10
2019-03-30T11:27:35.244Z,16.02
2019-03-30T11:30:06.131Z,13.50
2019-03-30T11:32:35.189Z,15.43
2019-03-30T11:35:05.383Z,16.00
2019-03-30T11:37:34.476Z,16.37
2019-03-30T11:40:05.766Z,15.63
2019-03-30T11:42:34.881Z,14.20
2019-03-30T11:45:05.025Z,16.05
2019-03-30T11:47:34.108Z,15.90
2019-03-30T11:50:03.900Z,15.65
2019-03-30T11:52:33.051Z,15.38
2019-03-30T11:55:02.122Z,18.20
2019-03-30T11:57:31.198Z,16.15
2019-03-30T12:00:00.374Z,16.95
2019-03-30T12:02:29.595Z,16.27
2019-03-30T12:04:58.652Z,13.80
2019-03-30T12:07:27.730Z,15.38
2019-03-30T12:09:56.803Z,15.45
2019-03-30T12:12:25.882Z,18.35
2019-03-30T12:14:54.933Z,17.30
2019-03-30T12:17:24.006Z,17.05
2019-03-30T12:19:53.044Z,18.57
2019-03-30T12:22:22.128Z,16.65
2019-03-30T12:24:51.181Z,17.27
2019-03-30T12:27:20.250Z,17.05
2019-03-30T12:29:49.316Z,16.45
2019-03-30T12:32:18.386Z,16.35
2019-03-30T12:34:47.454Z,16.02
2019-03-30T12:37:16.529Z,14.28
2019-03-30T12:39:45.595Z,14.80
2019-03-30T12:42:14.782Z,15.28
2019-03-30T12:44:43.885Z,18.05
2019-03-30T12:47:12.928Z,14.43
2019-03-30T12:49:45.090Z,15.83
2019-03-30T12:52:12.923Z,17.90
2019-03-30T12:54:41.999Z,15.95
2019-03-30T12:57:11.072Z,16.67
2019-03-30T12:59:40.119Z,18.17
2019-03-30T13:02:09.197Z,17.20
2019-03-30T13:04:38.285Z,16.50
2019-03-30T13:07:07.348Z,17.52
2019-03-30T13:09:36.458Z,17.50
2019-03-30T13:12:05.696Z,17.82
2019-03-30T13:14:34.770Z,19.17
2019-03-30T13:17:03.826Z,18.37
2019-03-30T13:19:32.887Z,19.57
2019-03-30T13:22:01.934Z,19.65
2019-03-30T13:24:31.023Z,21.80
2019-03-30T13:27:00.088Z,85.17
2019-03-30T13:29:29.141Z,19.85
2019-03-30T13:31:58.224Z,17.12
2019-03-30T13:34:27.302Z,17.65
2019-03-30T13:36:56.366Z,19.32
2019-03-30T13:39:25.455Z,16.70
2019-03-30T13:41:54.509Z,17.65
2019-03-30T13:44:23.614Z,16.27
2019-03-30T13:46:52.686Z,19.17
2019-03-30T13:49:21.754Z,17.52
2019-03-30T13:51:50.817Z,18.48
2019-03-30T13:54:19.872Z,16.05
2019-03-30T13:56:48.951Z,15.85
2019-03-30T13:59:18.021Z,15.00
2019-03-30T14:01:47.111Z,15.28
2019-03-30T14:04:16.174Z,16.05
2019-03-30T14:06:45.270Z,15.13
2019-03-30T14:09:14.325Z,15.43
2019-03-30T14:11:43.409Z,16.85
2019-03-30T14:14:12.468Z,15.38
2019-03-30T14:16:41.689Z,16.15
2019-03-30T14:19:10.743Z,16.70
2019-03-30T14:21:39.914Z,17.80
2019-03-30T14:24:09.079Z,14.95
2019-03-30T14:26:38.207Z,19.20
2019-03-30T14:29:07.274Z,15.45
2019-03-30T14:31:36.335Z,17.45
2019-03-30T14:34:05.417Z,17.05
2019-03-30T14:36:34.495Z,15.65
2019-03-30T14:39:04.610Z,17.23
2019-03-30T14:41:33.364Z,16.20
2019-03-30T14:44:02.157Z,15.20
2019-03-30T14:46:30.987Z,13.60
2019-03-30T14:48:59.763Z,13.20
2019-03-30T14:51:28.524Z,14.23
2019-03-30T14:53:57.285Z,13.27
2019-03-30T14:56:26.050Z,15.37
2019-03-30T14:58:54.816Z,13.20
2019-03-30T15:01:25.041Z,13.20
2019-03-30T15:03:53.896Z,13.57
2019-03-30T15:06:22.664Z,11.53
2019-03-30T15:08:51.434Z,12.10
2019-03-30T15:11:20.194Z,12.73
2019-03-30T15:13:48.962Z,13.40
2019-03-30T15:16:17.716Z,14.33
2019-03-30T15:18:46.546Z,12.53
2019-03-30T15:21:15.294Z,14.60
2019-03-30T15:23:44.073Z,15.20
2019-03-30T15:26:12.846Z,14.57
2019-03-30T15:28:42.940Z,14.10
2019-03-30T15:31:11.854Z,15.93
2019-03-30T15:33:40.627Z,15.13
2019-03-30T15:36:09.388Z,14.87
2019-03-30T15:38:38.174Z,15.47
2019-03-30T15:41:06.916Z,14.37
2019-03-30T15:43:38.657Z,15.00
2019-03-30T15:46:06.281Z,15.47
2019-03-30T15:48:35.095Z,12.93
2019-03-30T15:51:03.859Z,14.90
2019-03-30T15:53:32.702Z,15.60
2019-03-30T15:56:01.561Z,13.47
2019-03-30T15:58:30.355Z,12.83
2019-03-30T16:00:59.101Z,13.67
2019-03-30T16:03:27.902Z,12.97
2019-03-30T16:05:56.672Z,14.63
2019-03-30T16:08:25.435Z,13.60
2019-03-30T16:10:54.203Z,12.77
2019-03-30T16:13:23.063Z,14.30
2019-03-30T16:15:51.819Z,13.97
2019-03-30T16:18:20.600Z,13.93
2019-03-30T16:20:49.437Z,13.63
2019-03-30T16:23:18.217Z,14.90
2019-03-30T16:25:46.983Z,14.07
2019-03-30T16:28:15.751Z,13.57
2019-03-30T16:30:44.511Z,14.90
2019-03-30T16:33:13.612Z,15.05
2019-03-30T16:35:42.723Z,14.20
2019-03-30T16:38:11.821Z,14.63
2019-03-30T16:40:40.645Z,14.70
2019-03-30T16:43:09.704Z,17.12
2019-03-30T16:45:38.852Z,14.78
2019-03-30T16:48:08.064Z,14.70
2019-03-30T16:50:37.131Z,15.23
2019-03-30T16:53:06.268Z,14.83
2019-03-30T16:55:35.566Z,14.98
2019-03-30T16:58:04.781Z,13.93
2019-03-30T17:00:33.923Z,15.15
2019-03-30T17:03:03.891Z,17.05
2019-03-30T17:05:32.998Z,15.78
2019-03-30T17:08:02.078Z,15.72
2019-03-30T17:10:31.129Z,15.05
2019-03-30T17:13:00.231Z,18.00
2019-03-30T17:15:29.277Z,18.52
2019-03-30T17:17:58.357Z,16.73
2019-03-30T17:20:27.424Z,17.35
2019-03-30T17:22:58.805Z,16.30
2019-03-30T17:25:27.365Z,18.65
2019-03-30T17:27:58.584Z,19.60
2019-03-30T17:30:27.292Z,19.27
2019-03-30T17:32:56.358Z,21.17
2019-03-30T17:35:25.410Z,19.15
2019-03-30T17:37:54.471Z,19.87
2019-03-30T17:40:23.684Z,21.25
2019-03-30T17:42:52.750Z,19.20
2019-03-30T17:45:22.058Z,19.85
2019-03-30T17:47:51.105Z,19.70
2019-03-30T17:50:20.440Z,16.27
2019-03-30T17:52:49.503Z,20.88
2019-03-30T17:55:32.780Z,21.15
2019-03-30T17:57:49.359Z,19.05
2019-03-30T18:00:19.939Z,20.27
2019-03-30T18:02:49.002Z,16.82
2019-03-30T18:05:18.075Z,22.95
2019-03-30T18:07:48.944Z,19.35
2019-03-30T18:10:18.341Z,19.27
2019-03-30T18:12:47.389Z,18.95
2019-03-30T18:15:16.705Z,18.90
2019-03-30T18:17:45.759Z,24.05
2019-03-30T18:20:16.155Z,19.40
2019-03-30T18:22:45.225Z,17.77
2019-03-30T18:25:14.643Z,21.87
2019-03-30T18:27:43.691Z,21.48
2019-03-30T18:30:13.907Z,22.65
2019-03-30T18:32:43.398Z,24.35
2019-03-30T18:35:12.557Z,21.55
2019-03-30T18:37:41.827Z,79.25
2019-03-30T18:40:14.202Z,35.70
2019-03-30T18:42:43.398Z,27.17
2019-03-30T18:45:15.552Z,26.95
2019-03-30T18:47:44.621Z,30.40
2019-03-30T18:50:13.712Z,25.82
2019-03-30T18:52:43.600Z,27.73
2019-03-30T18:55:15.746Z,24.18
2019-03-30T18:57:44.796Z,27.65
2019-03-30T19:00:16.508Z,30.65
2019-03-30T19:02:45.564Z,28.65
2019-03-30T19:05:14.634Z,27.02
2019-03-30T19:07:43.702Z,24.63
2019-03-30T19:10:12.958Z,28.27
2019-03-30T19:12:42.014Z,24.98
2019-03-30T19:15:11.233Z,25.57
2019-03-30T19:17:40.288Z,30.27
2019-03-30T19:20:09.378Z,28.83
2019-03-30T19:22:38.446Z,23.32
2019-03-30T19:25:08.223Z,26.27
2019-03-30T19:27:37.266Z,24.02
2019-03-30T19:30:10.508Z,25.95
2019-03-30T19:32:39.572Z,30.55
2019-03-30T19:35:09.085Z,25.35
2019-03-30T19:37:38.141Z,25.52
2019-03-30T19:40:07.968Z,26.68
2019-03-30T19:42:37.021Z,24.27
2019-03-30T19:45:07.723Z,25.17
2019-03-30T19:47:36.856Z,26.90
2019-03-30T19:50:06.775Z,27.42
2019-03-30T19:52:40.001Z,26.20
2019-03-30T19:55:07.189Z,22.07
2019-03-30T19:57:36.249Z,22.42
2019-03-30T20:00:08.628Z,25.48
2019-03-30T20:02:37.699Z,25.10
2019-03-30T20:05:07.577Z,27.55
2019-03-30T20:07:36.625Z,21.60
2019-03-30T20:10:06.429Z,23.38
2019-03-30T20:12:35.661Z,25.27
2019-03-30T20:15:07.073Z,27.98
2019-03-30T20:17:36.140Z,28.60
2019-03-30T20:20:06.072Z,25.35
2019-03-30T20:22:35.136Z,27.10
2019-03-30T20:25:06.953Z,25.00
2019-03-30T20:27:36.093Z,27.73
2019-03-30T20:30:09.673Z,28.42
2019-03-30T20:32:38.741Z,27.25
2019-03-30T20:35:08.789Z,29.72
2019-03-30T20:37:37.938Z,28.70
2019-03-30T20:40:08.253Z,31.02
2019-03-30T20:42:37.335Z,25.23
2019-03-30T20:45:07.560Z,27.62
2019-03-30T20:47:36.635Z,28.12
2019-03-30T20:50:07.211Z,28.07
2019-03-30T20:52:36.352Z,35.38
2019-03-30T20:55:06.572Z,33.20
2019-03-30T20:57:35.633Z,36.40
2019-03-30T21:00:08.011Z,33.67
2019-03-30T21:02:37.069Z,30.35
2019-03-30T21:05:07.060Z,28.67
2019-03-30T21:10:08.051Z,25.72
2019-03-30T21:12:37.145Z,28.05
2019-03-30T21:15:07.676Z,28.35
2019-03-30T21:17:36.736Z,25.40
2019-03-30T21:20:08.548Z,24.87
2019-03-30T21:22:37.627Z,27.90
2019-03-30T21:25:06.930Z,25.17
2019-03-30T21:27:35.988Z,23.90
2019-03-30T21:30:07.964Z,24.32
2019-03-30T21:32:37.191Z,21.17
2019-03-30T21:35:07.896Z,25.08
2019-03-30T21:37:36.958Z,22.98
2019-03-30T21:40:07.748Z,24.50
2019-03-30T21:42:36.806Z,23.27
2019-03-30T21:45:07.720Z,27.25
2019-03-30T21:47:37.022Z,24.45
2019-03-30T21:50:08.042Z,25.85
2019-03-30T21:52:37.358Z,24.40
2019-03-30T21:55:06.915Z,26.57
2019-03-30T21:57:35.962Z,24.87
2019-03-30T22:00:10.363Z,26.95
2019-03-30T22:02:37.352Z,27.00
2019-03-30T22:05:06.955Z,26.70
2019-03-30T22:07:36.879Z,26.73
2019-03-30T22:10:11.215Z,26.45
2019-03-30T22:12:41.895Z,28.67
2019-03-30T22:15:11.166Z,28.25
2019-03-30T22:17:40.305Z,25.75
2019-03-30T22:20:10.024Z,27.50
2019-03-30T22:22:39.173Z,27.05
2019-03-30T22:25:08.575Z,31.33
2019-03-30T22:27:37.641Z,29.75
2019-03-30T22:30:07.542Z,26.82
2019-03-30T22:32:36.615Z,29.92
2019-03-30T22:35:05.943Z,28.07
2019-03-30T22:37:34.999Z,25.70
2019-03-30T22:40:04.944Z,25.70
2019-03-30T22:42:34.146Z,31.93
2019-03-30T22:45:04.737Z,26.87
2019-03-30T22:47:33.826Z,28.02
2019-03-30T22:50:03.259Z,27.65
2019-03-30T22:52:32.345Z,29.37
2019-03-30T22:55:01.415Z,25.12
2019-03-30T22:57:30.561Z,25.95
2019-03-30T23:00:00.269Z,29.55
2019-03-30T23:02:29.554Z,29.60
2019-03-30T23:04:58.616Z,26.77
2019-03-30T23:07:27.766Z,28.10
2019-03-30T23:09:56.860Z,28.80
2019-03-30T23:12:25.909Z,29.18
2019-03-30T23:14:54.980Z,29.05
2019-03-30T23:17:24.051Z,28.02
2019-03-30T23:19:53.132Z,28.92
2019-03-30T23:22:22.176Z,30.17
2019-03-30T23:24:51.284Z,30.65
2019-03-30T23:27:20.346Z,30.25
2019-03-30T23:29:49.420Z,28.27
2019-03-30T23:32:18.482Z,28.87
2019-03-30T23:34:47.552Z,30.32
2019-03-30T23:37:16.618Z,27.70
2019-03-30T23:39:45.783Z,28.23
2019-03-30T23:42:14.850Z,31.70
2019-03-30T23:44:43.926Z,28.35
2019-03-30T23:47:12.994Z,26.65
2019-03-30T23:49:42.334Z,27.93
2019-03-30T23:52:11.450Z,30.40
2019-03-30T23:54:40.663Z,27.58
2019-03-30T23:57:09.854Z,29.77
2019-03-30T23:59:38.944Z,28.77
